Time;durP1;ratioP1;P1;durP2;ratioP2;P2;SDS_P1;SDS_P2;PMS_P1;PMS_P2;Temp;Humidity;BMP_temperature;BMP_pressure;BME280_temperature;BME280_humidity;BME280_pressure;Samples;Min_cycle;Max_cycle;Signal;HPM_P1;HPM_P2
2024/04/19 00:00:25;;;;;;;;;;;;;;;;;;1119658;26;19940;-76
2024/04/19 00:00:55;;;;;;;;;;;;;;;;;;1123206;26;19965;-76
2024/04/19 00:01:26;;;;;;;;;;;;;;;;;;1116379;26;19969;-76
2024/04/19 00:01:56;;;;;;;;;;;;;;;;;;1116913;26;19961;-76
2024/04/19 00:02:26;;;;;;;;;;;;;;;;;;1123645;26;20419;-76
2024/04/19 00:02:57;;;;;;;;;;;;;;;;;;1119791;26;20335;-76
2024/04/19 00:03:27;;;;;;;;;;;;;;;;;;1119674;26;19936;-76
2024/04/19 00:03:57;;;;;;;;;;;;;;;;;;1120168;26;19940;-76
2024/04/19 00:04:27;;;;;;;;;;;;;;;;;;1127464;26;19960;-76
2024/04/19 00:04:57;;;;;;;;;;;;;;;;;;1127339;26;19952;-76
2024/04/19 00:05:28;;;;;;;;;;;;;;;;;;1119411;26;19929;-76
2024/04/19 00:05:58;;;;;;;;;;;;;;;;;;1119567;26;19973;-76
2024/04/19 00:06:28;;;;;;;;;;;;;;;;;;1120228;26;20029;-76
2024/04/19 00:06:58;;;;;;;;;;;;;;;;;;1119677;26;19965;-76
2024/04/19 00:07:29;;;;;;;;;;;;;;;;;;1119401;26;20014;-76
2024/04/19 00:07:59;;;;;;;;;;;;;;;;;;1109355;26;19942;-77
2024/04/19 00:08:29;;;;;;;;;;;;;;;;;;1114840;26;19938;-76
2024/04/19 00:08:59;;;;;;;;;;;;;;;;;;1123233;26;20403;-76
2024/04/19 00:09:29;;;;;;;;;;;;;;;;;;1122110;26;20097;-76
2024/04/19 00:10:00;;;;;;;;;;;;;;;;;;1128350;26;19981;-76
2024/04/19 00:10:30;;;;;;;;;;;;;;;;;;1116515;26;19929;-76
2024/04/19 00:11:00;;;;;;;;;;;;;;;;;;1112455;26;19973;-75
2024/04/19 00:11:30;;;;;;;;;;;;;;;;;;1112539;26;19930;-75
2024/04/19 00:12:01;;;;;;;;;;;;;;;;;;1119658;26;19937;-77
2024/04/19 00:12:31;;;;;;;;;;;;;;;;;;1120024;26;20311;-77
2024/04/19 00:13:01;;;;;;;;;;;;;;;;;;1112431;26;19936;-76
2024/04/19 00:13:31;;;;;;;;;;;;;;;;;;1116639;26;20016;-76
2024/04/19 00:14:02;;;;;;;;;;;;;;;;;;1111536;26;19952;-76
2024/04/19 00:14:32;;;;;;;;;;;;;;;;;;1112802;26;20365;-76
2024/04/19 00:15:03;;;;;;;;;;;;;;;;;;1120069;26;19975;-76
2024/04/19 00:15:33;;;;;;;;;;;;;;;;;;1112597;26;19934;-76
2024/04/19 00:16:03;;;;;;;;;;;;;;;;;;1108885;26;20503;-76
2024/04/19 00:16:33;;;;;;;;;;;;;;;;;;1116626;26;19940;-76
2024/04/19 00:17:04;;;;;;;;;;;;;;;;;;1114495;26;19957;-76
2024/04/19 00:17:34;;;;;;;;;;;;;;;;;;1119398;26;19964;-76
2024/04/19 00:18:05;;;;;;;;;;;;;;;;;;1119809;26;19933;-76
2024/04/19 00:18:35;;;;;;;;;;;;;;;;;;1113020;26;19930;-76
2024/04/19 00:19:05;;;;;;;;;;;;;;;;;;1112380;26;19948;-76
2024/04/19 00:19:36;;;;;;;;;;;;;;;;;;1112036;26;19934;-76
2024/04/19 00:20:07;;;;;;;;;;;;;;;;;;1112134;26;19937;-76
2024/04/19 00:20:37;;;;;;;;;;;;;;;;;;1119763;26;19929;-76
2024/04/19 00:21:07;;;;;;;;;;;;;;;;;;1119896;26;20002;-76
2024/04/19 00:21:37;;;;;;;;;;;;;;;;;;1120041;26;20359;-76
2024/04/19 00:22:07;;;;;;;;;;;;;;;;;;1127304;26;19938;-76
2024/04/19 00:22:38;;;;;;;;;;;;;;;;;;1119597;26;19961;-76
2024/04/19 00:23:08;;;;;;;;;;;;;;;;;;1119240;26;19957;-76
2024/04/19 00:23:38;;;;;;;;;;;;;;;;;;1119604;26;20024;-76
2024/04/19 00:24:08;;;;;;;;;;;;;;;;;;1119043;26;19933;-76
2024/04/19 00:24:39;;;;;;;;;;;;;;;;;;1112104;26;20010;-77
2024/04/19 00:25:09;;;;;;;;;;;;;;;;;;1114086;26;19965;-77
2024/04/19 00:25:39;;;;;;;;;;;;;;;;;;1116055;26;19945;-77
2024/04/19 00:26:09;;;;;;;;;;;;;;;;;;1123636;26;20053;-77
2024/04/19 00:26:40;;;;;;;;;;;;;;;;;;1131516;26;19940;-77
2024/04/19 00:27:10;;;;;;;;;;;;;;;;;;1119745;26;20400;-76
2024/04/19 00:27:40;;;;;;;;;;;;;;;;;;1113013;26;19930;-76
2024/04/19 00:28:11;;;;;;;;;;;;;;;;;;1111694;26;19934;-76
2024/04/19 00:28:41;;;;;;;;;;;;;;;;;;1103401;26;19949;-76
2024/04/19 00:29:11;;;;;;;;;;;;;;;;;;1112803;26;19933;-76
2024/04/19 00:29:41;;;;;;;;;;;;;;;;;;1116295;26;20309;-76
2024/04/19 00:30:11;;;;;;;;;;;;;;;;;;1116001;26;20478;-76
2024/04/19 00:30:42;;;;;;;;;;;;;;;;;;1120597;26;20366;-76
2024/04/19 00:31:12;;;;;;;;;;;;;;;;;;1124346;26;20288;-76
2024/04/19 00:31:42;;;;;;;;;;;;;;;;;;1112715;26;19937;-76
2024/04/19 00:32:12;;;;;;;;;;;;;;;;;;1112488;26;19936;-76
2024/04/19 00:32:43;;;;;;;;;;;;;;;;;;1120042;26;19975;-76
2024/04/19 00:33:13;;;;;;;;;;;;;;;;;;1120594;26;19953;-76
2024/04/19 00:33:43;;;;;;;;;;;;;;;;;;1119904;26;20026;-76
2024/04/19 00:34:13;;;;;;;;;;;;;;;;;;1119533;26;19929;-76
2024/04/19 00:34:44;;;;;;;;;;;;;;;;;;1119913;26;19929;-76
2024/04/19 00:35:14;;;;;;;;;;;;;;;;;;1112140;26;20405;-76
2024/04/19 00:35:44;;;;;;;;;;;;;;;;;;1107298;26;19930;-76
2024/04/19 00:36:14;;;;;;;;;;;;;;;;;;1107212;26;19929;-76
2024/04/19 00:36:44;;;;;;;;;;;;;;;;;;1112960;26;19988;-76
2024/04/19 00:37:15;;;;;;;;;;;;;;;;;;1113058;26;19953;-76
2024/04/19 00:37:45;;;;;;;;;;;;;;;;;;1119951;26;19935;-76
2024/04/19 00:38:15;;;;;;;;;;;;;;;;;;1119448;26;20408;-76
2024/04/19 00:38:46;;;;;;;;;;;;;;;;;;1119720;26;19957;-76
2024/04/19 00:39:16;;;;;;;;;;;;;;;;;;1116484;26;19991;-76
2024/04/19 00:39:46;;;;;;;;;;;;;;;;;;1116796;26;19973;-76
2024/04/19 00:40:16;;;;;;;;;;;;;;;;;;1115997;26;19933;-76
2024/04/19 00:40:46;;;;;;;;;;;;;;;;;;1120057;26;19953;-76
2024/04/19 00:41:17;;;;;;;;;;;;;;;;;;1120012;26;19969;-76
2024/04/19 00:41:47;;;;;;;;;;;;;;;;;;1120203;26;19933;-76
2024/04/19 00:42:17;;;;;;;;;;;;;;;;;;1119565;26;19948;-76
2024/04/19 00:42:47;;;;;;;;;;;;;;;;;;1119901;26;19930;-76
2024/04/19 00:43:18;;;;;;;;;;;;;;;;;;1119657;26;20400;-76
2024/04/19 00:43:48;;;;;;;;;;;;;;;;;;1119706;26;20366;-76
2024/04/19 00:44:18;;;;;;;;;;;;;;;;;;1119645;26;19929;-76
2024/04/19 00:44:48;;;;;;;;;;;;;;;;;;1127130;26;19943;-76
2024/04/19 00:45:18;;;;;;;;;;;;;;;;;;1127644;26;19936;-76
2024/04/19 00:45:50;;;;;;;;;;;;;;;;;;1125639;26;19928;-76
2024/04/19 00:46:20;;;;;;;;;;;;;;;;;;1118699;26;19947;-76
2024/04/19 00:46:51;;;;;;;;;;;;;;;;;;1119223;26;19935;-76
2024/04/19 00:47:21;;;;;;;;;;;;;;;;;;1119648;26;19929;-76
2024/04/19 00:47:51;;;;;;;;;;;;;;;;;;1119686;26;19929;-76
2024/04/19 00:48:21;;;;;;;;;;;;;;;;;;1119860;26;19997;-76
2024/04/19 00:48:52;;;;;;;;;;;;;;;;;;1108930;26;19963;-76
2024/04/19 00:49:22;;;;;;;;;;;;;;;;;;1109136;26;20281;-76
2024/04/19 00:49:52;;;;;;;;;;;;;;;;;;1114770;26;20397;-76
2024/04/19 00:50:22;;;;;;;;;;;;;;;;;;1115379;26;19936;-76
2024/04/19 00:50:52;;;;;;;;;;;;;;;;;;1123835;26;19928;-76
2024/04/19 00:51:23;;;;;;;;;;;;;;;;;;1123418;26;19929;-76
2024/04/19 00:51:53;;;;;;;;;;;;;;;;;;1119451;26;19936;-76
2024/04/19 00:52:23;;;;;;;;;;;;;;;;;;1132379;26;19940;-76
2024/04/19 00:52:53;;;;;;;;;;;;;;;;;;1131770;26;20763;-76
2024/04/19 00:53:26;;;;;;;;;;;;;;;;;;1125204;26;20300;-77
2024/04/19 00:53:57;;;;;;;;;;;;;;;;;;1129817;26;20369;-76
2024/04/19 00:54:27;;;;;;;;;;;;;;;;;;1120422;26;19937;-76
2024/04/19 00:54:57;;;;;;;;;;;;;;;;;;1119818;26;19936;-76
2024/04/19 00:55:27;;;;;;;;;;;;;;;;;;1119775;26;19929;-76
2024/04/19 00:55:58;;;;;;;;;;;;;;;;;;1119811;26;19929;-76
2024/04/19 00:56:28;;;;;;;;;;;;;;;;;;1119946;26;19937;-76
2024/04/19 00:56:58;;;;;;;;;;;;;;;;;;1112114;26;19936;-76
2024/04/19 00:57:28;;;;;;;;;;;;;;;;;;1109200;26;20054;-76
2024/04/19 00:57:58;;;;;;;;;;;;;;;;;;1122015;26;19964;-76
2024/04/19 00:58:29;;;;;;;;;;;;;;;;;;1123821;26;19945;-76
2024/04/19 00:58:59;;;;;;;;;;;;;;;;;;1131544;26;19992;-76
2024/04/19 00:59:29;;;;;;;;;;;;;;;;;;1123861;26;19933;-76
2024/04/19 00:59:59;;;;;;;;;;;;;;;;;;1120063;26;19964;-76
2024/04/19 01:00:29;;;;;;;;;;;;;;;;;;1119686;26;19933;-76
2024/04/19 01:01:00;;;;;;;;;;;;;;;;;;1119733;26;19929;-76
2024/04/19 01:01:30;;;;;;;;;;;;;;;;;;1127358;26;20396;-76
2024/04/19 01:02:00;;;;;;;;;;;;;;;;;;1119771;26;20376;-76
2024/04/19 01:02:31;;;;;;;;;;;;;;;;;;1119141;26;19931;-76
2024/04/19 01:03:01;;;;;;;;;;;;;;;;;;1119647;26;19937;-76
2024/04/19 01:03:31;;;;;;;;;;;;;;;;;;1119602;26;19941;-76
2024/04/19 01:04:01;;;;;;;;;;;;;;;;;;1119233;26;19929;-76
2024/04/19 01:04:31;;;;;;;;;;;;;;;;;;1120489;26;19933;-76
2024/04/19 01:05:02;;;;;;;;;;;;;;;;;;1127485;26;19940;-76
2024/04/19 01:05:32;;;;;;;;;;;;;;;;;;1118978;26;20343;-76
2024/04/19 01:06:02;;;;;;;;;;;;;;;;;;1119339;26;20326;-76
2024/04/19 01:06:33;;;;;;;;;;;;;;;;;;1119776;26;20450;-76
2024/04/19 01:07:03;;;;;;;;;;;;;;;;;;1119631;26;20364;-76
2024/04/19 01:07:33;;;;;;;;;;;;;;;;;;1120024;26;20403;-76
2024/04/19 01:08:03;;;;;;;;;;;;;;;;;;1112475;26;19954;-76
2024/04/19 01:08:34;;;;;;;;;;;;;;;;;;1108394;26;20343;-76
2024/04/19 01:09:04;;;;;;;;;;;;;;;;;;1112159;26;19969;-76
2024/04/19 01:09:34;;;;;;;;;;;;;;;;;;1112091;26;19936;-76
2024/04/19 01:10:04;;;;;;;;;;;;;;;;;;1108609;26;19934;-76
2024/04/19 01:10:35;;;;;;;;;;;;;;;;;;1108794;26;19934;-76
2024/04/19 01:11:05;;;;;;;;;;;;;;;;;;1107715;26;19941;-76
2024/04/19 01:11:35;;;;;;;;;;;;;;;;;;1107004;26;20409;-76
2024/04/19 01:12:05;;;;;;;;;;;;;;;;;;1118332;26;20406;-76
2024/04/19 01:12:35;;;;;;;;;;;;;;;;;;1110466;26;19937;-76
2024/04/19 01:13:06;;;;;;;;;;;;;;;;;;1109288;26;20698;-76
2024/04/19 01:13:36;;;;;;;;;;;;;;;;;;1108828;26;19929;-76
2024/04/19 01:14:07;;;;;;;;;;;;;;;;;;1123716;26;19940;-77
2024/04/19 01:14:37;;;;;;;;;;;;;;;;;;1126797;26;19929;-77
2024/04/19 01:15:08;;;;;;;;;;;;;;;;;;1120585;26;19929;-77
2024/04/19 01:15:38;;;;;;;;;;;;;;;;;;1122614;26;19940;-76
2024/04/19 01:16:08;;;;;;;;;;;;;;;;;;1120907;26;19935;-76
2024/04/19 01:16:38;;;;;;;;;;;;;;;;;;1124573;26;19929;-76
2024/04/19 01:17:09;;;;;;;;;;;;;;;;;;1121173;26;20079;-76
2024/04/19 01:17:39;;;;;;;;;;;;;;;;;;1120457;26;19935;-76
2024/04/19 01:18:09;;;;;;;;;;;;;;;;;;1112066;26;19933;-76
2024/04/19 01:18:40;;;;;;;;;;;;;;;;;;1109886;26;19979;-76
2024/04/19 01:19:10;;;;;;;;;;;;;;;;;;1108612;26;20432;-76
2024/04/19 01:19:40;;;;;;;;;;;;;;;;;;1103114;26;19930;-76
2024/04/19 01:20:10;;;;;;;;;;;;;;;;;;1110458;26;19937;-76
2024/04/19 01:20:40;;;;;;;;;;;;;;;;;;1109523;26;19936;-77
2024/04/19 01:21:11;;;;;;;;;;;;;;;;;;1109969;26;19933;-77
2024/04/19 01:21:42;;;;;;;;;;;;;;;;;;1110507;26;20310;-77
2024/04/19 01:22:12;;;;;;;;;;;;;;;;;;1100215;26;19930;-76
2024/04/19 01:22:43;;;;;;;;;;;;;;;;;;1103823;26;19936;-76
2024/04/19 01:23:13;;;;;;;;;;;;;;;;;;1109314;26;19929;-77
2024/04/19 01:23:43;;;;;;;;;;;;;;;;;;1118392;26;20077;-77
2024/04/19 01:24:14;;;;;;;;;;;;;;;;;;1121499;26;19944;-77
2024/04/19 01:24:44;;;;;;;;;;;;;;;;;;1122989;26;19943;-77
2024/04/19 01:25:14;;;;;;;;;;;;;;;;;;1122855;26;19972;-77
2024/04/19 01:25:45;;;;;;;;;;;;;;;;;;1117240;26;19941;-77
2024/04/19 01:26:15;;;;;;;;;;;;;;;;;;1114961;26;19945;-77
2024/04/19 01:26:45;;;;;;;;;;;;;;;;;;1111834;26;19934;-77
2024/04/19 01:27:15;;;;;;;;;;;;;;;;;;1103922;26;20504;-77
2024/04/19 01:27:46;;;;;;;;;;;;;;;;;;1112128;26;19929;-77
2024/04/19 01:28:16;;;;;;;;;;;;;;;;;;1104003;26;19938;-77
2024/04/19 01:28:46;;;;;;;;;;;;;;;;;;1111566;26;20418;-77
2024/04/19 01:29:16;;;;;;;;;;;;;;;;;;1122816;26;19932;-77
2024/04/19 01:29:46;;;;;;;;;;;;;;;;;;1113577;26;20571;-77
2024/04/19 01:30:17;;;;;;;;;;;;;;;;;;1117779;26;19996;-77
2024/04/19 01:30:47;;;;;;;;;;;;;;;;;;1114907;26;19945;-77
2024/04/19 01:31:17;;;;;;;;;;;;;;;;;;1105811;26;19936;-77
2024/04/19 01:31:48;;;;;;;;;;;;;;;;;;1111080;26;19970;-77
2024/04/19 01:32:18;;;;;;;;;;;;;;;;;;1106729;26;19938;-77
2024/04/19 01:32:48;;;;;;;;;;;;;;;;;;1112030;26;19930;-77
2024/04/19 01:33:18;;;;;;;;;;;;;;;;;;1119404;26;19965;-77
2024/04/19 01:33:49;;;;;;;;;;;;;;;;;;1112501;26;20376;-77
2024/04/19 01:34:19;;;;;;;;;;;;;;;;;;1112041;26;19957;-77
2024/04/19 01:34:49;;;;;;;;;;;;;;;;;;1119657;26;19943;-77
2024/04/19 01:35:19;;;;;;;;;;;;;;;;;;1115774;26;19942;-77
2024/04/19 01:35:49;;;;;;;;;;;;;;;;;;1119154;26;20373;-77
2024/04/19 01:36:20;;;;;;;;;;;;;;;;;;1119086;26;19936;-77
2024/04/19 01:36:50;;;;;;;;;;;;;;;;;;1118572;26;20436;-77
2024/04/19 01:37:20;;;;;;;;;;;;;;;;;;1110753;26;20003;-77
2024/04/19 01:37:50;;;;;;;;;;;;;;;;;;1119262;26;19937;-77
2024/04/19 01:38:21;;;;;;;;;;;;;;;;;;1118999;26;19939;-77
2024/04/19 01:38:51;;;;;;;;;;;;;;;;;;1118869;26;19937;-77
2024/04/19 01:39:21;;;;;;;;;;;;;;;;;;1115254;26;19977;-77
2024/04/19 01:39:51;;;;;;;;;;;;;;;;;;1109902;26;19929;-77
2024/04/19 01:40:22;;;;;;;;;;;;;;;;;;1114815;26;19936;-77
2024/04/19 01:40:52;;;;;;;;;;;;;;;;;;1113319;26;19929;-76
2024/04/19 01:41:22;;;;;;;;;;;;;;;;;;1118812;26;19941;-76
2024/04/19 01:41:52;;;;;;;;;;;;;;;;;;1123565;26;20709;-76
2024/04/19 01:42:23;;;;;;;;;;;;;;;;;;1111238;26;20401;-76
2024/04/19 01:42:53;;;;;;;;;;;;;;;;;;1112594;26;19936;-76
2024/04/19 01:43:23;;;;;;;;;;;;;;;;;;1121555;26;19928;-76
2024/04/19 01:43:53;;;;;;;;;;;;;;;;;;1107925;26;19930;-76
2024/04/19 01:44:23;;;;;;;;;;;;;;;;;;1117513;26;19965;-76
2024/04/19 01:44:54;;;;;;;;;;;;;;;;;;1119779;26;19928;-76
2024/04/19 01:45:24;;;;;;;;;;;;;;;;;;1119379;26;19994;-76
2024/04/19 01:45:55;;;;;;;;;;;;;;;;;;1125520;26;20400;-76
2024/04/19 01:46:25;;;;;;;;;;;;;;;;;;1118737;26;20006;-76
2024/04/19 01:46:55;;;;;;;;;;;;;;;;;;1119027;26;19929;-76
2024/04/19 01:47:25;;;;;;;;;;;;;;;;;;1118056;26;20383;-76
2024/04/19 01:47:56;;;;;;;;;;;;;;;;;;1111578;26;19930;-77
2024/04/19 01:48:26;;;;;;;;;;;;;;;;;;1104559;26;19938;-77
2024/04/19 01:48:56;;;;;;;;;;;;;;;;;;1104755;26;19967;-78
2024/04/19 01:49:26;;;;;;;;;;;;;;;;;;1108768;26;19929;-77
2024/04/19 01:49:57;;;;;;;;;;;;;;;;;;1118600;26;20393;-77
2024/04/19 01:50:27;;;;;;;;;;;;;;;;;;1125546;26;20384;-77
2024/04/19 01:50:57;;;;;;;;;;;;;;;;;;1125841;26;20401;-77
2024/04/19 01:51:27;;;;;;;;;;;;;;;;;;1118041;26;20395;-77
2024/04/19 01:51:57;;;;;;;;;;;;;;;;;;1118529;26;19929;-77
2024/04/19 01:52:28;;;;;;;;;;;;;;;;;;1119440;26;20358;-77
2024/04/19 01:52:58;;;;;;;;;;;;;;;;;;1118891;26;20019;-77
2024/04/19 01:53:28;;;;;;;;;;;;;;;;;;1126988;26;19961;-77
2024/04/19 01:53:59;;;;;;;;;;;;;;;;;;1126196;26;20022;-77
2024/04/19 01:54:29;;;;;;;;;;;;;;;;;;1118934;26;19929;-77
2024/04/19 01:54:59;;;;;;;;;;;;;;;;;;1119197;26;20339;-77
2024/04/19 01:55:29;;;;;;;;;;;;;;;;;;1119510;26;20630;-77
2024/04/19 01:56:00;;;;;;;;;;;;;;;;;;1115667;26;19937;-77
2024/04/19 01:56:30;;;;;;;;;;;;;;;;;;1119760;26;20473;-76
2024/04/19 01:57:02;;;;;;;;;;;;;;;;;;1117836;26;20094;-76
2024/04/19 01:57:32;;;;;;;;;;;;;;;;;;1119343;26;19944;-76
2024/04/19 01:58:02;;;;;;;;;;;;;;;;;;1117070;26;19969;-76
2024/04/19 01:58:32;;;;;;;;;;;;;;;;;;1118706;26;20300;-76
2024/04/19 01:59:02;;;;;;;;;;;;;;;;;;1110627;26;19954;-76
2024/04/19 01:59:33;;;;;;;;;;;;;;;;;;1110791;26;19936;-76
2024/04/19 02:00:03;;;;;;;;;;;;;;;;;;1112213;26;19930;-76
2024/04/19 02:00:33;;;;;;;;;;;;;;;;;;1115419;26;19936;-76
2024/04/19 02:01:03;;;;;;;;;;;;;;;;;;1113867;26;19929;-76
2024/04/19 02:01:34;;;;;;;;;;;;;;;;;;1114887;26;20052;-76
2024/04/19 02:02:04;;;;;;;;;;;;;;;;;;1120448;26;19929;-78
2024/04/19 02:02:34;;;;;;;;;;;;;;;;;;1127199;26;19935;-78
2024/04/19 02:03:04;;;;;;;;;;;;;;;;;;1132158;26;19950;-78
2024/04/19 02:03:35;;;;;;;;;;;;;;;;;;1129151;26;20002;-77
2024/04/19 02:04:05;;;;;;;;;;;;;;;;;;1125281;26;19936;-78
2024/04/19 02:04:35;;;;;;;;;;;;;;;;;;1119087;26;19940;-78
2024/04/19 02:05:05;;;;;;;;;;;;;;;;;;1119408;26;19933;-77
2024/04/19 02:05:35;;;;;;;;;;;;;;;;;;1119262;26;19929;-77
2024/04/19 02:06:06;;;;;;;;;;;;;;;;;;1120159;26;20480;-77
2024/04/19 02:06:36;;;;;;;;;;;;;;;;;;1119066;26;20396;-77
2024/04/19 02:07:06;;;;;;;;;;;;;;;;;;1118698;26;19940;-77
2024/04/19 02:07:36;;;;;;;;;;;;;;;;;;1121695;26;20372;-77
2024/04/19 02:08:07;;;;;;;;;;;;;;;;;;1111054;26;19958;-76
2024/04/19 02:08:37;;;;;;;;;;;;;;;;;;1133567;26;19981;-77
2024/04/19 02:09:07;;;;;;;;;;;;;;;;;;1124869;26;19982;-77
2024/04/19 02:09:37;;;;;;;;;;;;;;;;;;1118991;26;19972;-77
2024/04/19 02:10:08;;;;;;;;;;;;;;;;;;1123188;26;19965;-77
2024/04/19 02:10:38;;;;;;;;;;;;;;;;;;1119689;26;19932;-77
2024/04/19 02:11:09;;;;;;;;;;;;;;;;;;1116274;26;19940;-77
2024/04/19 02:11:39;;;;;;;;;;;;;;;;;;1126553;26;20020;-77
2024/04/19 02:12:09;;;;;;;;;;;;;;;;;;1127328;26;19961;-77
2024/04/19 02:12:40;;;;;;;;;;;;;;;;;;1120577;26;20276;-77
2024/04/19 02:13:10;;;;;;;;;;;;;;;;;;1120571;26;20285;-77
2024/04/19 02:13:40;;;;;;;;;;;;;;;;;;1119893;26;19980;-77
2024/04/19 02:14:10;;;;;;;;;;;;;;;;;;1118639;26;20040;-77
2024/04/19 02:14:40;;;;;;;;;;;;;;;;;;1121541;26;19928;-77
2024/04/19 02:15:12;;;;;;;;;;;;;;;;;;1116571;26;19937;-78
2024/04/19 02:15:43;;;;;;;;;;;;;;;;;;1114187;26;19937;-78
2024/04/19 02:16:13;;;;;;;;;;;;;;;;;;1115844;26;20380;-78
2024/04/19 02:16:43;;;;;;;;;;;;;;;;;;1111975;26;20024;-78
2024/04/19 02:17:13;;;;;;;;;;;;;;;;;;1116707;26;20767;-77
2024/04/19 02:17:44;;;;;;;;;;;;;;;;;;1119542;26;19935;-77
2024/04/19 02:18:14;;;;;;;;;;;;;;;;;;1120085;26;19937;-77
2024/04/19 02:18:44;;;;;;;;;;;;;;;;;;1119781;26;20039;-77
2024/04/19 02:19:14;;;;;;;;;;;;;;;;;;1110361;26;19944;-78
2024/04/19 02:19:45;;;;;;;;;;;;;;;;;;1113460;26;19929;-77
2024/04/19 02:20:15;;;;;;;;;;;;;;;;;;1106537;26;19966;-77
2024/04/19 02:20:46;;;;;;;;;;;;;;;;;;1105710;26;19930;-79
2024/04/19 02:21:16;;;;;;;;;;;;;;;;;;1110131;26;19948;-78
2024/04/19 02:21:46;;;;;;;;;;;;;;;;;;1114026;26;19930;-78
2024/04/19 02:22:16;;;;;;;;;;;;;;;;;;1112679;26;19941;-76
2024/04/19 02:22:47;;;;;;;;;;;;;;;;;;1120433;26;20477;-77
2024/04/19 02:23:17;;;;;;;;;;;;;;;;;;1110441;26;20893;-77
2024/04/19 02:23:47;;;;;;;;;;;;;;;;;;1111024;26;19999;-77
2024/04/19 02:24:17;;;;;;;;;;;;;;;;;;1118212;26;19929;-77
2024/04/19 02:24:48;;;;;;;;;;;;;;;;;;1116778;26;19936;-77
2024/04/19 02:25:18;;;;;;;;;;;;;;;;;;1119317;26;19929;-77
2024/04/19 02:25:48;;;;;;;;;;;;;;;;;;1112177;26;20028;-77
2024/04/19 02:26:18;;;;;;;;;;;;;;;;;;1112573;26;20044;-77
2024/04/19 02:26:52;;;;;;;;;;;;;;;;;;1122501;26;19957;-77
2024/04/19 02:30:54;;;;;;;;;;;;;;;;;;1126917;26;19925;-77
2024/04/19 02:31:25;;;;;;;;;;;;;;;;;;1116249;26;20440;-76
2024/04/19 02:31:55;;;;;;;;;;;;;;;;;;1110450;26;19937;-76
2024/04/19 02:32:25;;;;;;;;;;;;;;;;;;1111898;26;19997;-76
2024/04/19 02:32:55;;;;;;;;;;;;;;;;;;1108887;26;19983;-76
2024/04/19 02:33:26;;;;;;;;;;;;;;;;;;1120035;26;19929;-76
2024/04/19 02:33:56;;;;;;;;;;;;;;;;;;1121440;26;19998;-77
2024/04/19 02:34:26;;;;;;;;;;;;;;;;;;1121931;26;19929;-76
2024/04/19 02:34:57;;;;;;;;;;;;;;;;;;1127013;26;20444;-77
2024/04/19 02:35:27;;;;;;;;;;;;;;;;;;1122140;26;19974;-77
2024/04/19 02:35:57;;;;;;;;;;;;;;;;;;1112611;26;20404;-76
2024/04/19 02:36:27;;;;;;;;;;;;;;;;;;1124815;26;19935;-77
2024/04/19 02:36:58;;;;;;;;;;;;;;;;;;1121542;26;19936;-78
2024/04/19 02:37:28;;;;;;;;;;;;;;;;;;1112975;26;20440;-78
2024/04/19 02:37:58;;;;;;;;;;;;;;;;;;1116656;26;19936;-78
2024/04/19 02:38:29;;;;;;;;;;;;;;;;;;1109657;26;20009;-78
2024/04/19 02:38:59;;;;;;;;;;;;;;;;;;1112750;26;19934;-78
2024/04/19 02:39:29;;;;;;;;;;;;;;;;;;1107771;26;19934;-78
2024/04/19 02:40:00;;;;;;;;;;;;;;;;;;1121477;26;19936;-78
2024/04/19 02:40:30;;;;;;;;;;;;;;;;;;1128969;26;19928;-78
2024/04/19 02:41:00;;;;;;;;;;;;;;;;;;1124918;26;19940;-78
2024/04/19 02:41:30;;;;;;;;;;;;;;;;;;1123989;26;19929;-77
2024/04/19 02:42:01;;;;;;;;;;;;;;;;;;1127988;26;19928;-79
2024/04/19 02:42:31;;;;;;;;;;;;;;;;;;1119656;26;19941;-79
2024/04/19 02:43:01;;;;;;;;;;;;;;;;;;1120811;26;19933;-78
2024/04/19 02:43:31;;;;;;;;;;;;;;;;;;1119277;26;19948;-78
2024/04/19 02:44:01;;;;;;;;;;;;;;;;;;1113023;26;19940;-78
2024/04/19 02:44:32;;;;;;;;;;;;;;;;;;1113597;26;19954;-79
2024/04/19 02:45:02;;;;;;;;;;;;;;;;;;1111844;26;19929;-79
2024/04/19 02:45:32;;;;;;;;;;;;;;;;;;1120375;26;19961;-78
2024/04/19 02:46:03;;;;;;;;;;;;;;;;;;1120917;26;19933;-78
2024/04/19 02:46:33;;;;;;;;;;;;;;;;;;1120921;26;19933;-78
2024/04/19 02:47:03;;;;;;;;;;;;;;;;;;1122093;26;19936;-79
2024/04/19 02:47:36;;;;;;;;;;;;;;;;;;1119139;26;19936;-79
2024/04/19 02:48:06;;;;;;;;;;;;;;;;;;1121092;26;20000;-78
2024/04/19 02:48:37;;;;;;;;;;;;;;;;;;1120283;26;19934;-78
2024/04/19 02:49:07;;;;;;;;;;;;;;;;;;1120094;26;19929;-78
2024/04/19 02:49:38;;;;;;;;;;;;;;;;;;1120139;26;19929;-78
2024/04/19 02:50:08;;;;;;;;;;;;;;;;;;1118573;26;19929;-78
2024/04/19 02:50:38;;;;;;;;;;;;;;;;;;1125966;26;20404;-78
2024/04/19 02:51:09;;;;;;;;;;;;;;;;;;1125917;26;20267;-78
2024/04/19 02:51:39;;;;;;;;;;;;;;;;;;1115828;26;20278;-77
2024/04/19 02:52:09;;;;;;;;;;;;;;;;;;1118859;26;20287;-78
2024/04/19 02:52:39;;;;;;;;;;;;;;;;;;1118300;26;20686;-80
2024/04/19 02:53:10;;;;;;;;;;;;;;;;;;1117949;26;19941;-78
2024/04/19 02:53:42;;;;;;;;;;;;;;;;;;1125371;26;19929;-78
2024/04/19 02:54:12;;;;;;;;;;;;;;;;;;1126800;26;19932;-78
2024/04/19 02:54:42;;;;;;;;;;;;;;;;;;1117938;26;19933;-78
2024/04/19 02:55:13;;;;;;;;;;;;;;;;;;1117209;26;19933;-78
2024/04/19 02:55:43;;;;;;;;;;;;;;;;;;1110198;26;20064;-77
2024/04/19 02:56:13;;;;;;;;;;;;;;;;;;1111358;26;19977;-78
2024/04/19 02:56:44;;;;;;;;;;;;;;;;;;1109416;26;20806;-77
2024/04/19 02:57:14;;;;;;;;;;;;;;;;;;1109549;26;19935;-77
2024/04/19 02:57:45;;;;;;;;;;;;;;;;;;1108721;26;19991;-79
2024/04/19 02:58:16;;;;;;;;;;;;;;;;;;1116807;26;19929;-78
2024/04/19 02:58:46;;;;;;;;;;;;;;;;;;1124470;26;19997;-78
2024/04/19 02:59:16;;;;;;;;;;;;;;;;;;1126740;26;20317;-78
2024/04/19 02:59:47;;;;;;;;;;;;;;;;;;1125734;26;19968;-78
2024/04/19 03:00:17;;;;;;;;;;;;;;;;;;1126234;26;19943;-79
2024/04/19 03:00:47;;;;;;;;;;;;;;;;;;1120076;26;20381;-79
2024/04/19 03:01:18;;;;;;;;;;;;;;;;;;1114661;26;19932;-79
2024/04/19 03:01:48;;;;;;;;;;;;;;;;;;1112264;26;19931;-79
2024/04/19 03:02:19;;;;;;;;;;;;;;;;;;1112626;26;20440;-79
2024/04/19 03:02:49;;;;;;;;;;;;;;;;;;1119935;26;19940;-79
2024/04/19 03:03:19;;;;;;;;;;;;;;;;;;1112368;26;19940;-80
2024/04/19 03:03:50;;;;;;;;;;;;;;;;;;1110363;21;19945;-75
2024/04/19 03:04:20;;;;;;;;;;;;;;;;;;1101729;26;19974;-75
2024/04/19 03:04:50;;;;;;;;;;;;;;;;;;1097763;26;20548;-75
2024/04/19 03:05:23;;;;;;;;;;;;;;;;;;1100533;26;19938;-75
2024/04/19 03:05:56;;;;;;;;;;;;;;;;;;1099303;26;19938;-75
2024/04/19 03:06:27;;;;;;;;;;;;;;;;;;1099983;26;20340;-75
2024/04/19 03:06:58;;;;;;;;;;;;;;;;;;1102085;26;19938;-74
2024/04/19 03:07:28;;;;;;;;;;;;;;;;;;1095945;26;19938;-75
2024/04/19 03:07:59;;;;;;;;;;;;;;;;;;1094291;26;19941;-75
2024/04/19 03:08:29;;;;;;;;;;;;;;;;;;1094668;26;20053;-75
2024/04/19 03:09:00;;;;;;;;;;;;;;;;;;1093126;26;19962;-76
2024/04/19 03:09:30;;;;;;;;;;;;;;;;;;1095219;26;19933;-74
2024/04/19 03:10:00;;;;;;;;;;;;;;;;;;1096823;26;19934;-74
2024/04/19 03:10:31;;;;;;;;;;;;;;;;;;1097867;26;19949;-74
2024/04/19 03:11:02;;;;;;;;;;;;;;;;;;1099024;26;19930;-74
2024/04/19 03:11:33;;;;;;;;;;;;;;;;;;1092920;26;20249;-74
2024/04/19 03:12:03;;;;;;;;;;;;;;;;;;1091202;26;20478;-75
2024/04/19 03:12:33;;;;;;;;;;;;;;;;;;1081050;27;19951;-75
2024/04/19 03:13:04;;;;;;;;;;;;;;;;;;1090902;27;20418;-75
2024/04/19 03:13:34;;;;;;;;;;;;;;;;;;1097778;26;20011;-75
2024/04/19 03:14:05;;;;;;;;;;;;;;;;;;1096533;26;19931;-75
2024/04/19 03:14:36;;;;;;;;;;;;;;;;;;1101459;26;20385;-75
2024/04/19 03:15:07;;;;;;;;;;;;;;;;;;1099413;26;20646;-74
2024/04/19 03:15:38;;;;;;;;;;;;;;;;;;1089043;26;21549;-74
2024/04/19 03:16:08;;;;;;;;;;;;;;;;;;1091909;26;19931;-75
2024/04/19 03:16:39;;;;;;;;;;;;;;;;;;1087226;26;19938;-76
2024/04/19 03:17:09;;;;;;;;;;;;;;;;;;1098868;26;19938;-75
2024/04/19 03:17:40;;;;;;;;;;;;;;;;;;1095067;26;20825;-75
2024/04/19 03:18:10;;;;;;;;;;;;;;;;;;1102425;26;19970;-74
2024/04/19 03:18:41;;;;;;;;;;;;;;;;;;1104250;26;19934;-74
2024/04/19 03:19:12;;;;;;;;;;;;;;;;;;1099398;26;19931;-74
2024/04/19 03:19:42;;;;;;;;;;;;;;;;;;1096183;26;20318;-75
2024/04/19 03:20:15;;;;;;;;;;;;;;;;;;1093840;26;20484;-76
2024/04/19 03:20:46;;;;;;;;;;;;;;;;;;1091256;26;19938;-75
2024/04/19 03:21:17;;;;;;;;;;;;;;;;;;1090520;26;19939;-75
2024/04/19 03:21:47;;;;;;;;;;;;;;;;;;1092071;26;19930;-75
2024/04/19 03:22:18;;;;;;;;;;;;;;;;;;1086763;26;20040;-76
2024/04/19 03:22:48;;;;;;;;;;;;;;;;;;1084455;27;20010;-74
2024/04/19 03:23:19;;;;;;;;;;;;;;;;;;1084620;27;20032;-76
2024/04/19 03:23:49;;;;;;;;;;;;;;;;;;1090622;26;20367;-77
2024/04/19 03:24:20;;;;;;;;;;;;;;;;;;1088249;27;19931;-75
2024/04/19 03:24:50;;;;;;;;;;;;;;;;;;1095175;26;19937;-74
2024/04/19 03:25:20;;;;;;;;;;;;;;;;;;1093382;26;19938;-74
2024/04/19 03:25:51;;;;;;;;;;;;;;;;;;1092502;26;19938;-74
2024/04/19 03:26:21;;;;;;;;;;;;;;;;;;1089885;26;19954;-75
2024/04/19 03:26:53;;;;;;;;;;;;;;;;;;1092409;26;20001;-74
2024/04/19 03:27:25;;;;;;;;;;;;;;;;;;1099617;26;19930;-74
2024/04/19 03:27:55;;;;;;;;;;;;;;;;;;1099880;26;19962;-74
2024/04/19 03:28:25;;;;;;;;;;;;;;;;;;1105233;26;19949;-75
2024/04/19 03:28:55;;;;;;;;;;;;;;;;;;1101259;26;19965;-76
2024/04/19 03:29:26;;;;;;;;;;;;;;;;;;1100493;26;19966;-76
2024/04/19 03:29:56;;;;;;;;;;;;;;;;;;1090839;27;19931;-73
2024/04/19 03:30:27;;;;;;;;;;;;;;;;;;1087812;27;19937;-75
2024/04/19 03:30:57;;;;;;;;;;;;;;;;;;1090031;27;21587;-75